createdAt,value
2023-04-02T00:01:23.982Z,54.95
2023-04-02T00:04:04.367Z,54.58
2023-04-02T00:06:40.961Z,53.99
2023-04-02T00:09:18.852Z,54.00
2023-04-02T00:11:51.698Z,53.48
2023-04-02T00:14:36.533Z,53.27
2023-04-02T00:17:07.549Z,53.36
2023-04-02T00:20:08.892Z,53.39
2023-04-02T00:22:45.507Z,52.84
2023-04-02T00:25:16.383Z,53.02
2023-04-02T00:27:47.214Z,52.35
2023-04-02T00:30:18.216Z,52.27
2023-04-02T00:32:49.837Z,50.94
2023-04-02T00:35:28.294Z,51.58
2023-04-02T00:37:59.139Z,50.48
2023-04-02T00:40:32.148Z,50.12
2023-04-02T00:43:04.471Z,49.01
2023-04-02T00:45:38.575Z,48.85
2023-04-02T00:48:33.625Z,48.53
2023-04-02T00:51:59.169Z,48.76
2023-04-02T00:54:34.132Z,48.41
2023-04-02T00:57:04.725Z,48.05
2023-04-02T00:59:38.591Z,47.85
2023-04-02T01:02:19.382Z,47.76
2023-04-02T01:05:18.641Z,47.63
2023-04-02T01:07:58.312Z,47.25
2023-04-02T01:11:04.439Z,46.76
2023-04-02T01:13:41.443Z,45.50
2023-04-02T01:16:26.094Z,45.46
2023-04-02T01:19:46.673Z,46.03
2023-04-02T01:22:24.260Z,46.36
2023-04-02T01:24:59.160Z,46.08
2023-04-02T01:27:53.909Z,45.68
2023-04-02T01:30:30.435Z,45.69
2023-04-02T01:33:04.067Z,45.83
2023-04-02T01:35:38.977Z,46.00
2023-04-02T01:38:23.480Z,45.93
2023-04-02T01:41:22.938Z,46.71
2023-04-02T01:44:13.865Z,46.99
2023-04-02T01:46:45.701Z,47.63
2023-04-02T01:49:22.108Z,47.72
2023-04-02T01:51:57.733Z,48.12
2023-04-02T01:54:31.773Z,48.00
2023-04-02T01:57:02.666Z,48.51
2023-04-02T01:59:34.246Z,48.27
2023-04-02T02:02:14.625Z,47.79
2023-04-02T02:04:46.872Z,48.63
2023-04-02T02:07:21.542Z,48.44
2023-04-02T02:09:58.347Z,48.22
2023-04-02T02:12:29.393Z,47.89
2023-04-02T02:15:03.411Z,47.16
2023-04-02T02:17:35.456Z,47.01
2023-04-02T02:20:12.369Z,47.42
2023-04-02T02:22:50.502Z,47.34
2023-04-02T02:25:27.314Z,46.97
2023-04-02T02:28:29.685Z,46.88
2023-04-02T02:31:13.873Z,46.66
2023-04-02T02:33:48.716Z,46.88
2023-04-02T02:36:50.138Z,46.54
2023-04-02T02:39:37.066Z,46.31
2023-04-02T02:42:25.980Z,46.45
2023-04-02T02:44:58.441Z,46.39
2023-04-02T02:47:36.216Z,46.58
2023-04-02T02:50:11.328Z,45.92
2023-04-02T02:52:48.300Z,45.88
2023-04-02T02:55:45.146Z,46.55
2023-04-02T02:58:31.109Z,47.05
2023-04-02T03:01:24.905Z,47.84
2023-04-02T03:03:57.853Z,47.96
2023-04-02T03:06:29.502Z,48.16
2023-04-02T03:09:38.613Z,48.36
2023-04-02T03:12:23.567Z,47.96
2023-04-02T03:15:16.472Z,48.02
2023-04-02T03:17:55.437Z,48.18
2023-04-02T03:20:50.497Z,47.71
2023-04-02T03:23:31.180Z,48.00
2023-04-02T03:26:54.042Z,48.46
2023-04-02T03:29:28.691Z,48.28
2023-04-02T03:32:09.624Z,47.90
2023-04-02T03:34:54.243Z,47.74
2023-04-02T03:37:33.779Z,47.75
2023-04-02T03:40:17.304Z,47.45
2023-04-02T03:42:50.946Z,47.10
2023-04-02T03:45:25.544Z,47.82
2023-04-02T03:48:12.740Z,46.37
2023-04-02T03:50:50.274Z,47.58
2023-04-02T03:53:26.149Z,47.66
2023-04-02T03:55:57.879Z,46.99
2023-04-02T03:58:34.317Z,46.94
2023-04-02T04:01:35.570Z,45.64
2023-04-02T04:04:15.507Z,45.23
2023-04-02T04:06:48.053Z,45.45
2023-04-02T04:09:37.314Z,45.27
2023-04-02T04:12:23.920Z,45.61
2023-04-02T04:15:10.677Z,45.43
2023-04-02T04:17:52.305Z,45.73
2023-04-02T04:20:34.816Z,45.50
2023-04-02T04:23:30.904Z,44.92
2023-04-02T04:26:12.594Z,45.26
2023-04-02T04:28:48.965Z,45.11
2023-04-02T04:31:39.973Z,45.44
2023-04-02T04:34:43.297Z,44.97
2023-04-02T04:37:34.430Z,45.17
2023-04-02T04:40:26.030Z,44.75
2023-04-02T04:43:07.872Z,43.75
2023-04-02T04:46:02.489Z,43.66
2023-04-02T04:48:40.338Z,42.76
2023-04-02T04:51:22.081Z,42.78
2023-04-02T04:53:56.054Z,43.06
2023-04-02T04:56:31.766Z,43.26
2023-04-02T04:59:36.352Z,43.16
2023-04-02T05:02:20.791Z,43.25
2023-04-02T05:04:53.687Z,43.65
2023-04-02T05:07:39.619Z,43.73
2023-04-02T05:10:32.256Z,43.69
2023-04-02T05:13:09.295Z,43.38
2023-04-02T05:16:01.192Z,43.46
2023-04-02T05:18:54.110Z,43.48
2023-04-02T05:21:36.653Z,43.42
2023-04-02T05:24:29.483Z,42.83
2023-04-02T05:27:06.806Z,42.32
2023-04-02T05:29:40.868Z,43.27
2023-04-02T05:32:18.791Z,42.93
2023-04-02T05:34:52.577Z,43.51
2023-04-02T05:37:26.106Z,42.23
2023-04-02T05:40:07.628Z,42.74
2023-04-02T05:42:38.979Z,42.48
2023-04-02T05:45:33.816Z,43.40
2023-04-02T05:48:20.291Z,43.14
2023-04-02T05:50:55.915Z,43.82
2023-04-02T05:53:42.661Z,42.68
2023-04-02T05:56:45.988Z,43.16
2023-04-02T05:59:36.097Z,42.50
2023-04-02T06:02:09.113Z,42.51
2023-04-02T06:04:58.156Z,42.35
2023-04-02T06:07:47.955Z,43.18
2023-04-02T06:10:26.735Z,42.71
2023-04-02T06:13:05.009Z,43.53
2023-04-02T06:15:42.740Z,42.80
2023-04-02T06:18:21.748Z,43.44
2023-04-02T06:20:55.119Z,43.31
2023-04-02T06:23:45.614Z,43.37
2023-04-02T06:26:41.341Z,43.00
2023-04-02T06:29:40.826Z,43.39
2023-04-02T06:32:20.975Z,42.55
2023-04-02T06:34:52.165Z,42.55
2023-04-02T06:37:37.207Z,43.73
2023-04-02T06:40:41.088Z,43.04
2023-04-02T06:43:47.066Z,43.17
2023-04-02T06:47:26.373Z,42.84
2023-04-02T06:50:03.017Z,42.86
2023-04-02T06:52:46.371Z,43.17
2023-04-02T06:55:35.157Z,42.04
2023-04-02T06:58:11.101Z,41.92
2023-04-02T07:00:47.013Z,41.70
2023-04-02T07:03:29.814Z,41.65
2023-04-02T07:06:04.547Z,41.46
2023-04-02T07:08:37.500Z,41.66
2023-04-02T07:11:08.411Z,41.61
2023-04-02T07:13:38.850Z,41.81
2023-04-02T07:16:16.770Z,42.58
2023-04-02T07:18:48.385Z,42.68
2023-04-02T07:21:19.641Z,42.95
2023-04-02T07:23:53.123Z,42.94
2023-04-02T07:26:28.204Z,43.19
2023-04-02T07:28:59.052Z,43.11
2023-04-02T07:31:30.684Z,42.56
2023-04-02T07:34:02.517Z,43.02
2023-04-02T07:36:35.793Z,42.16
2023-04-02T07:39:07.446Z,42.53
2023-04-02T07:41:53.353Z,42.71
2023-04-02T07:44:24.059Z,42.38
2023-04-02T07:46:54.965Z,42.48
2023-04-02T07:49:26.221Z,41.55
2023-04-02T07:51:57.706Z,41.70
2023-04-02T07:54:29.241Z,41.59
2023-04-02T07:57:00.067Z,41.41
2023-04-02T07:59:30.769Z,42.20
2023-04-02T08:02:01.669Z,41.70
2023-04-02T08:04:32.309Z,41.42
2023-04-02T08:07:03.165Z,41.52
2023-04-02T08:09:34.164Z,41.54
2023-04-02T08:12:05.300Z,41.48
2023-04-02T08:14:36.016Z,41.69
2023-04-02T08:17:06.937Z,41.32
2023-04-02T08:19:48.161Z,41.84
2023-04-02T08:22:25.325Z,41.69
2023-04-02T08:24:55.980Z,41.76
2023-04-02T08:27:27.374Z,41.99
2023-04-02T08:29:58.320Z,41.89
2023-04-02T08:32:30.082Z,42.41
2023-04-02T08:35:00.569Z,43.25
2023-04-02T08:37:31.473Z,43.16
2023-04-02T08:40:04.782Z,43.27
2023-04-02T08:42:41.966Z,43.24
2023-04-02T08:45:39.934Z,43.33
2023-04-02T08:48:14.111Z,43.27
2023-04-02T08:50:45.433Z,43.37
2023-04-02T08:53:22.694Z,43.97
2023-04-02T08:56:09.483Z,43.67
2023-04-02T08:58:54.870Z,43.95
2023-04-02T09:01:28.279Z,44.19
2023-04-02T09:04:00.669Z,44.39
2023-04-02T09:06:32.530Z,44.42
2023-04-02T09:09:13.788Z,44.96
2023-04-02T09:11:48.661Z,44.84
2023-04-02T09:14:35.835Z,45.09
2023-04-02T09:17:17.010Z,44.92
2023-04-02T09:19:55.939Z,44.72
2023-04-02T09:22:28.826Z,45.26
2023-04-02T09:25:01.959Z,45.46
2023-04-02T09:27:35.155Z,45.47
2023-04-02T09:30:34.856Z,45.98
2023-04-02T09:33:10.113Z,44.89
2023-04-02T09:35:52.809Z,45.39
2023-04-02T09:38:32.477Z,45.44
2023-04-02T09:41:20.206Z,45.24
2023-04-02T09:43:51.496Z,45.75
2023-04-02T09:46:27.018Z,45.57
2023-04-02T09:49:04.634Z,45.21
2023-04-02T09:51:37.497Z,45.15
2023-04-02T09:54:17.315Z,45.27
2023-04-02T09:57:06.767Z,45.41
2023-04-02T09:59:38.417Z,44.95
2023-04-02T10:02:30.625Z,44.93
2023-04-02T10:05:06.843Z,45.44
2023-04-02T10:07:47.610Z,44.96
2023-04-02T10:10:21.031Z,45.30
2023-04-02T10:13:07.717Z,45.26
2023-04-02T10:16:05.000Z,44.86
2023-04-02T10:18:53.689Z,45.01
2023-04-02T10:21:38.986Z,44.69
2023-04-02T10:24:17.610Z,44.53
2023-04-02T10:27:00.013Z,44.31
2023-04-02T10:30:06.226Z,44.81
2023-04-02T10:33:01.750Z,45.24
2023-04-02T10:35:49.564Z,44.56
2023-04-02T10:38:31.833Z,45.09
2023-04-02T10:41:24.693Z,45.56
2023-04-02T10:44:16.706Z,45.31
2023-04-02T10:47:11.308Z,45.43
2023-04-02T10:50:20.643Z,45.33
2023-04-02T10:52:59.673Z,45.44
2023-04-02T10:55:33.950Z,45.50
2023-04-02T10:58:09.313Z,45.80
2023-04-02T11:00:42.011Z,45.97
2023-04-02T11:03:20.429Z,46.09
2023-04-02T11:05:57.127Z,46.09
2023-04-02T11:08:41.143Z,45.68
2023-04-02T11:11:22.410Z,46.01
2023-04-02T11:14:05.024Z,45.73
2023-04-02T11:16:37.293Z,45.62
2023-04-02T11:19:17.146Z,46.14
2023-04-02T11:22:27.261Z,46.59
2023-04-02T11:24:59.009Z,46.04
2023-04-02T11:27:31.804Z,46.50
2023-04-02T11:30:21.568Z,46.33
2023-04-02T11:32:52.550Z,46.61
2023-04-02T11:35:37.043Z,46.86
2023-04-02T11:38:12.300Z,46.99
2023-04-02T11:40:45.899Z,46.95
2023-04-02T11:43:35.017Z,47.49
2023-04-02T11:46:17.836Z,47.19
2023-04-02T11:48:48.304Z,46.61
2023-04-02T11:51:24.890Z,46.95
2023-04-02T11:53:59.336Z,47.03
2023-04-02T11:56:47.349Z,46.97
2023-04-02T11:59:50.342Z,46.80
2023-04-02T12:02:50.831Z,46.97
2023-04-02T12:05:28.984Z,46.93
2023-04-02T12:07:59.365Z,47.33
2023-04-02T12:10:33.906Z,47.16
2023-04-02T12:13:04.321Z,47.26
2023-04-02T12:15:40.588Z,47.42
2023-04-02T12:18:24.543Z,47.00
2023-04-02T12:20:57.689Z,47.18
2023-04-02T12:23:32.271Z,46.80
2023-04-02T12:26:09.897Z,47.23
2023-04-02T12:28:43.240Z,47.06
2023-04-02T12:31:17.561Z,46.76
2023-04-02T12:33:48.224Z,47.07
2023-04-02T12:36:22.496Z,47.56
2023-04-02T12:38:58.444Z,48.24
2023-04-02T12:41:32.887Z,47.46
2023-04-02T12:44:07.649Z,47.15
2023-04-02T12:46:39.676Z,47.45
2023-04-02T12:49:27.005Z,47.47
2023-04-02T12:51:58.383Z,46.89
2023-04-02T12:54:37.694Z,46.47
2023-04-02T12:57:32.469Z,46.24
2023-04-02T13:00:22.009Z,46.24
2023-04-02T13:02:55.573Z,46.07
2023-04-02T13:05:43.666Z,45.65
2023-04-02T13:08:31.627Z,45.61
2023-04-02T13:11:04.457Z,45.58
2023-04-02T13:13:39.961Z,45.46
2023-04-02T13:16:22.462Z,45.50
2023-04-02T13:18:53.843Z,45.16
2023-04-02T13:21:28.755Z,45.48
2023-04-02T13:23:59.927Z,45.54
2023-04-02T13:26:31.564Z,45.42
2023-04-02T13:29:10.751Z,45.31
2023-04-02T13:31:41.422Z,45.51
2023-04-02T13:34:12.368Z,45.10
2023-04-02T13:36:42.634Z,45.35
2023-04-02T13:39:14.401Z,45.86
2023-04-02T13:41:59.771Z,46.85
2023-04-02T13:44:35.893Z,47.29
2023-04-02T13:47:06.512Z,47.79
2023-04-02T13:49:45.039Z,48.08
2023-04-02T13:52:18.438Z,48.29
2023-04-02T13:54:51.791Z,48.47
2023-04-02T13:57:22.480Z,48.52
2023-04-02T13:59:53.183Z,48.50
2023-04-02T14:02:26.194Z,48.40
2023-04-02T14:05:30.134Z,48.05
2023-04-02T14:08:13.175Z,48.02
2023-04-02T14:10:53.139Z,47.83
2023-04-02T14:13:38.721Z,47.95
2023-04-02T14:16:20.883Z,47.87
2023-04-02T14:19:07.184Z,47.78
2023-04-02T14:22:02.190Z,47.89
2023-04-02T14:25:12.953Z,47.51
2023-04-02T14:28:24.520Z,48.14
2023-04-02T14:31:00.430Z,48.14
2023-04-02T14:34:09.808Z,48.70
2023-04-02T14:36:58.564Z,48.61
2023-04-02T14:39:38.729Z,47.74
2023-04-02T14:42:19.253Z,48.17
2023-04-02T14:45:08.274Z,47.76
2023-04-02T14:48:02.260Z,47.76
2023-04-02T14:50:39.926Z,47.10
2023-04-02T14:53:40.398Z,47.31
2023-04-02T14:56:13.405Z,47.39
2023-04-02T14:58:52.812Z,47.26
2023-04-02T15:01:29.129Z,47.79
2023-04-02T15:04:14.413Z,47.20
2023-04-02T15:06:49.661Z,46.95
2023-04-02T15:09:30.315Z,46.83
2023-04-02T15:12:26.137Z,46.89
2023-04-02T15:15:15.354Z,47.10
2023-04-02T15:17:46.128Z,46.83
2023-04-02T15:20:18.580Z,47.28
2023-04-02T15:22:59.017Z,47.29
2023-04-02T15:25:50.767Z,47.17
2023-04-02T15:28:24.104Z,46.38
2023-04-02T15:31:01.239Z,46.64
2023-04-02T15:33:55.889Z,46.76
2023-04-02T15:36:36.357Z,46.58
2023-04-02T15:39:24.867Z,46.42
2023-04-02T15:42:20.364Z,46.81
2023-04-02T15:45:09.720Z,46.86
2023-04-02T15:47:49.404Z,46.47
2023-04-02T15:50:39.465Z,46.56
2023-04-02T15:53:23.184Z,47.18
2023-04-02T15:56:16.176Z,47.28
2023-04-02T15:58:52.695Z,47.21
2023-04-02T16:01:32.492Z,48.31
2023-04-02T16:04:22.170Z,47.64
2023-04-02T16:07:49.149Z,48.01
2023-04-02T16:10:40.183Z,47.68
2023-04-02T16:13:30.565Z,48.31
2023-04-02T16:16:06.474Z,47.56
2023-04-02T16:19:04.661Z,47.31
2023-04-02T16:21:40.314Z,47.49
2023-04-02T16:24:14.484Z,47.36
2023-04-02T16:27:01.557Z,47.33
2023-04-02T16:29:47.110Z,47.52
2023-04-02T16:32:24.320Z,47.54
2023-04-02T16:35:01.961Z,47.11
2023-04-02T16:38:21.419Z,47.33
2023-04-02T16:41:11.014Z,47.54
2023-04-02T16:44:07.093Z,47.29
2023-04-02T16:46:58.903Z,47.28
2023-04-02T16:49:53.912Z,47.32
2023-04-02T16:52:31.649Z,47.31
2023-04-02T16:55:14.401Z,47.32
2023-04-02T16:58:09.020Z,47.50
2023-04-02T17:00:47.646Z,47.60
2023-04-02T17:03:42.758Z,47.74
2023-04-02T17:06:37.245Z,47.69
2023-04-02T17:09:27.157Z,47.73
2023-04-02T17:12:12.954Z,48.07
2023-04-02T17:15:00.830Z,48.10
2023-04-02T17:17:31.716Z,48.21
2023-04-02T17:20:11.429Z,48.61
2023-04-02T17:22:41.893Z,48.58
2023-04-02T17:25:20.931Z,48.71
2023-04-02T17:27:55.656Z,48.84
2023-04-02T17:30:48.142Z,49.08
2023-04-02T17:33:20.370Z,48.72
2023-04-02T17:35:56.413Z,48.82
2023-04-02T17:38:37.537Z,49.23
2023-04-02T17:41:19.681Z,49.46
2023-04-02T17:44:12.716Z,49.37
2023-04-02T17:46:46.643Z,49.45
2023-04-02T17:49:38.379Z,49.40
2023-04-02T17:52:38.061Z,49.28
2023-04-02T17:55:11.259Z,49.65
2023-04-02T17:57:51.224Z,49.43
2023-04-02T18:00:27.077Z,49.54
2023-04-02T18:03:02.676Z,49.39
2023-04-02T18:05:52.084Z,49.67
2023-04-02T18:08:26.483Z,49.86
2023-04-02T18:11:35.761Z,49.88
2023-04-02T18:14:19.940Z,49.75
2023-04-02T18:17:08.958Z,50.20
2023-04-02T18:20:21.677Z,50.06
2023-04-02T18:23:13.378Z,50.22
2023-04-02T18:25:57.591Z,50.24
2023-04-02T18:29:03.363Z,50.53
2023-04-02T18:32:05.399Z,50.14
2023-04-02T18:34:45.956Z,50.56
2023-04-02T18:37:34.693Z,50.54
2023-04-02T18:40:22.658Z,50.80
2023-04-02T18:43:24.177Z,50.66
2023-04-02T18:46:15.848Z,50.84
2023-04-02T18:49:20.986Z,50.79
2023-04-02T18:51:56.102Z,51.16
2023-04-02T18:54:34.994Z,51.33
2023-04-02T18:57:19.298Z,51.33
2023-04-02T19:00:05.528Z,51.34
2023-04-02T19:03:08.162Z,51.07
2023-04-02T19:05:46.262Z,51.26
2023-04-02T19:08:24.733Z,51.28
2023-04-02T19:10:59.532Z,51.20
2023-04-02T19:13:30.076Z,51.46
2023-04-02T19:16:18.909Z,51.35
2023-04-02T19:19:01.245Z,51.37
2023-04-02T19:22:01.328Z,51.38
2023-04-02T19:24:37.836Z,51.46
2023-04-02T19:27:39.321Z,51.44
2023-04-02T19:30:49.955Z,51.77
2023-04-02T19:33:42.484Z,51.85
2023-04-02T19:36:19.973Z,51.75
2023-04-02T19:39:05.179Z,51.60
2023-04-02T19:41:49.063Z,51.84
2023-04-02T19:44:19.750Z,51.83
2023-04-02T19:46:52.301Z,52.05
2023-04-02T19:49:34.925Z,52.04
2023-04-02T19:52:06.205Z,52.19
2023-04-02T19:54:38.212Z,52.19
2023-04-02T19:57:08.641Z,52.22
2023-04-02T19:59:39.000Z,52.44
2023-04-02T20:02:11.395Z,52.47
2023-04-02T20:04:43.420Z,52.31
2023-04-02T20:07:13.873Z,52.52
2023-04-02T20:09:44.286Z,52.21
2023-04-02T20:12:15.181Z,52.34
2023-04-02T20:14:45.829Z,52.34
2023-04-02T20:17:16.956Z,52.68
2023-04-02T20:19:47.343Z,52.50
2023-04-02T20:22:20.098Z,52.52
2023-04-02T20:24:51.254Z,52.46
2023-04-02T20:27:21.859Z,52.76
2023-04-02T20:29:52.790Z,53.09
2023-04-02T20:32:54.361Z,52.63
2023-04-02T20:35:26.518Z,52.54
2023-04-02T20:37:57.454Z,52.80
2023-04-02T20:40:28.056Z,52.58
2023-04-02T20:43:07.130Z,52.76
2023-04-02T20:45:38.299Z,52.67
2023-04-02T20:48:08.988Z,52.78
2023-04-02T20:50:39.326Z,52.98
2023-04-02T20:53:10.199Z,53.16
2023-04-02T20:55:40.646Z,52.94
2023-04-02T20:58:10.910Z,52.92
2023-04-02T21:00:43.469Z,53.02
2023-04-02T21:03:14.865Z,52.92
2023-04-02T21:05:49.206Z,53.15
2023-04-02T21:08:22.128Z,53.42
2023-04-02T21:10:53.584Z,53.28
2023-04-02T21:13:24.379Z,52.97
2023-04-02T21:15:55.080Z,53.38
2023-04-02T21:18:25.476Z,53.19
2023-04-02T21:21:05.662Z,53.35
2023-04-02T21:23:36.697Z,53.21
2023-04-02T21:26:11.964Z,53.17
2023-04-02T21:28:43.348Z,53.64
2023-04-02T21:31:27.892Z,53.28
2023-04-02T21:33:59.881Z,53.51
2023-04-02T21:36:36.356Z,53.69
2023-04-02T21:39:09.036Z,53.46
2023-04-02T21:41:44.285Z,53.98
2023-04-02T21:44:20.326Z,53.68
2023-04-02T21:46:53.087Z,53.71
2023-04-02T21:49:27.252Z,53.78
2023-04-02T21:51:58.279Z,54.12
2023-04-02T21:54:28.900Z,53.88
2023-04-02T21:57:01.896Z,53.75
2023-04-02T21:59:32.477Z,53.80
2023-04-02T22:02:03.348Z,53.62
2023-04-02T22:04:34.227Z,54.01
2023-04-02T22:07:04.566Z,54.15
2023-04-02T22:09:43.419Z,54.21
2023-04-02T22:12:14.687Z,54.06
2023-04-02T22:14:44.812Z,54.13
2023-04-02T22:17:15.463Z,54.06
2023-04-02T22:19:46.602Z,53.88
2023-04-02T22:22:17.405Z,54.00
2023-04-02T22:24:48.017Z,54.36
2023-04-02T22:27:18.464Z,54.48
2023-04-02T22:29:49.450Z,54.11
2023-04-02T22:32:20.410Z,54.41
2023-04-02T22:34:50.694Z,54.48
2023-04-02T22:37:21.032Z,54.53
2023-04-02T22:39:52.043Z,54.58
2023-04-02T22:42:22.835Z,54.33
2023-04-02T22:44:56.378Z,54.17
2023-04-02T22:47:27.112Z,54.34
2023-04-02T22:49:57.951Z,54.13
2023-04-02T22:52:28.281Z,54.13
2023-04-02T22:54:58.972Z,54.49
2023-04-02T22:57:29.335Z,54.32
2023-04-02T23:00:00.004Z,54.32
2023-04-02T23:02:30.290Z,54.71
2023-04-02T23:05:01.028Z,54.62
2023-04-02T23:07:32.179Z,54.95
2023-04-02T23:10:04.610Z,55.40
2023-04-02T23:12:41.304Z,55.46
2023-04-02T23:15:12.658Z,55.89
2023-04-02T23:17:43.325Z,56.18
2023-04-02T23:20:14.979Z,56.63
2023-04-02T23:22:45.114Z,56.89
2023-04-02T23:25:19.412Z,57.02
2023-04-02T23:27:51.107Z,57.26
2023-04-02T23:30:22.571Z,57.51
2023-04-02T23:32:56.339Z,57.67
2023-04-02T23:35:27.304Z,57.96
2023-04-02T23:37:57.625Z,57.75
2023-04-02T23:40:28.573Z,57.37
2023-04-02T23:42:59.243Z,57.39
2023-04-02T23:45:33.068Z,57.23
2023-04-02T23:48:04.063Z,56.95
2023-04-02T23:50:34.917Z,57.14
2023-04-02T23:53:05.608Z,57.07
2023-04-02T23:55:37.130Z,57.21
2023-04-02T23:58:07.623Z,57.16
